createdAt,value
2022-09-28T00:01:16.716Z,94428.63
2022-09-28T00:03:44.695Z,94423.72
2022-09-28T00:06:14.480Z,94426.38
2022-09-28T00:08:40.926Z,94415.63
2022-09-28T00:11:10.527Z,94406.28
2022-09-28T00:13:36.966Z,94402.66
2022-09-28T00:16:15.330Z,94402.81
2022-09-28T00:18:42.023Z,94393.31
2022-09-28T00:21:12.466Z,94393.31
2022-09-28T00:23:40.452Z,94390.47
2022-09-28T00:26:06.910Z,94368.19
2022-09-28T00:28:33.367Z,94377.09
2022-09-28T00:30:59.797Z,94362.50
2022-09-28T00:33:26.288Z,94368.75
2022-09-28T00:35:57.450Z,94353.38
2022-09-28T00:38:28.925Z,94357.22
2022-09-28T00:40:55.513Z,94349.03
2022-09-28T00:43:23.651Z,94347.66
2022-09-28T00:46:02.618Z,94347.50
2022-09-28T00:48:35.848Z,94345.53
2022-09-28T00:51:09.806Z,94337.91
2022-09-28T00:53:42.448Z,94335.00
2022-09-28T00:56:18.350Z,94332.22
2022-09-28T00:58:50.137Z,94327.38
2022-09-28T01:01:17.164Z,94319.94
2022-09-28T01:03:44.977Z,94318.97
2022-09-28T01:06:18.441Z,94317.38
2022-09-28T01:08:47.650Z,94319.84
2022-09-28T01:11:14.087Z,94313.84
2022-09-28T01:13:42.495Z,94323.63
2022-09-28T01:16:45.958Z,94313.09
2022-09-28T01:19:43.499Z,94323.22
2022-09-28T01:22:27.954Z,94320.00
2022-09-28T01:25:12.354Z,94308.25
2022-09-28T01:27:47.411Z,94295.69
2022-09-28T01:30:19.281Z,94296.09
2022-09-28T01:32:57.587Z,94295.88
2022-09-28T01:35:40.344Z,94286.78
2022-09-28T01:38:17.935Z,94292.84
2022-09-28T01:40:48.030Z,94277.25
2022-09-28T01:43:25.059Z,94287.50
2022-09-28T01:45:59.862Z,94283.47
2022-09-28T01:48:55.033Z,94268.69
2022-09-28T01:52:10.588Z,94272.34
2022-09-28T01:54:53.374Z,94270.34
2022-09-28T01:57:34.768Z,94278.41
2022-09-28T02:00:06.814Z,94275.16
2022-09-28T02:02:41.724Z,94269.47
2022-09-28T02:05:15.071Z,94264.38
2022-09-28T02:07:56.636Z,94266.28
2022-09-28T02:10:30.848Z,94272.19
2022-09-28T02:13:16.894Z,94254.94
2022-09-28T02:15:53.643Z,94253.16
2022-09-28T02:18:20.187Z,94241.56
2022-09-28T02:20:56.717Z,94233.84
2022-09-28T02:23:28.287Z,94240.13
2022-09-28T02:26:03.512Z,94242.84
2022-09-28T02:28:30.256Z,94254.66
2022-09-28T02:30:56.706Z,94225.94
2022-09-28T02:33:43.769Z,94230.41
2022-09-28T02:36:11.396Z,94228.78
2022-09-28T02:38:38.355Z,94229.63
2022-09-28T02:41:24.252Z,94227.16
2022-09-28T02:43:59.738Z,94208.25
2022-09-28T02:46:46.807Z,94203.13
2022-09-28T02:49:25.509Z,94203.41
2022-09-28T02:52:03.491Z,94214.97
2022-09-28T02:54:51.592Z,94199.97
2022-09-28T02:57:23.956Z,94192.38
2022-09-28T03:00:11.141Z,94207.94
2022-09-28T03:02:51.948Z,94199.75
2022-09-28T03:05:36.888Z,94192.81
2022-09-28T03:08:10.210Z,94194.63
2022-09-28T03:10:55.859Z,94187.31
2022-09-28T03:13:23.568Z,94172.03
2022-09-28T03:15:50.063Z,94180.28
2022-09-28T03:18:16.678Z,94183.13
2022-09-28T03:20:43.228Z,94178.69
2022-09-28T03:23:25.597Z,94164.91
2022-09-28T03:25:52.087Z,94164.13
2022-09-28T03:28:18.538Z,94162.09
2022-09-28T03:30:45.052Z,94156.44
2022-09-28T03:33:11.481Z,94163.53
2022-09-28T03:35:37.931Z,94155.59
2022-09-28T03:38:04.507Z,94155.38
2022-09-28T03:40:30.986Z,94160.09
2022-09-28T03:42:57.498Z,94156.19
2022-09-28T03:45:24.023Z,94141.38
2022-09-28T03:47:50.524Z,94151.94
2022-09-28T03:50:16.982Z,94141.13
2022-09-28T03:52:43.443Z,94133.19
2022-09-28T03:55:10.274Z,94123.47
2022-09-28T03:57:37.236Z,94123.91
2022-09-28T04:00:05.295Z,94120.41
2022-09-28T04:02:31.948Z,94116.00
2022-09-28T04:04:58.433Z,94124.31
2022-09-28T04:07:27.955Z,94103.63
2022-09-28T04:09:57.441Z,94108.28
2022-09-28T04:12:24.072Z,94102.59
2022-09-28T04:14:50.633Z,94101.38
2022-09-28T04:17:17.086Z,94100.28
2022-09-28T04:19:43.564Z,94087.25
2022-09-28T04:22:10.086Z,94096.16
2022-09-28T04:24:36.522Z,94094.94
2022-09-28T04:27:03.044Z,94085.16
2022-09-28T04:29:29.487Z,94083.84
2022-09-28T04:31:56.343Z,94092.13
2022-09-28T04:34:23.358Z,94085.97
2022-09-28T04:36:49.808Z,94086.81
2022-09-28T04:39:18.076Z,94081.38
2022-09-28T04:41:47.721Z,94076.28
2022-09-28T04:44:14.204Z,94075.28
2022-09-28T04:46:40.729Z,94071.81
2022-09-28T04:49:07.187Z,94055.97
2022-09-28T04:51:33.643Z,94055.81
2022-09-28T04:54:00.081Z,94057.53
2022-09-28T04:56:26.527Z,94056.72
2022-09-28T04:58:53.095Z,94054.69
2022-09-28T05:01:20.463Z,94046.94
2022-09-28T05:03:46.949Z,94042.53
2022-09-28T05:06:14.978Z,94039.19
2022-09-28T05:08:42.827Z,94038.56
2022-09-28T05:11:12.180Z,94040.38
2022-09-28T05:13:44.675Z,94037.31
2022-09-28T05:16:13.477Z,94031.13
2022-09-28T05:18:39.962Z,94028.50
2022-09-28T05:21:10.920Z,94024.47
2022-09-28T05:23:37.378Z,94019.63
2022-09-28T05:26:03.936Z,94015.81
2022-09-28T05:28:32.248Z,94002.81
2022-09-28T05:31:00.323Z,93998.97
2022-09-28T05:33:27.941Z,93993.25
2022-09-28T05:35:57.866Z,93995.59
2022-09-28T05:38:27.296Z,93990.44
2022-09-28T05:40:53.843Z,93984.97
2022-09-28T05:43:20.362Z,93999.09
2022-09-28T05:45:49.352Z,94004.00
2022-09-28T05:48:18.074Z,94012.09
2022-09-28T05:50:44.522Z,94017.47
2022-09-28T05:53:11.074Z,94019.13
2022-09-28T05:55:37.551Z,94002.91
2022-09-28T05:58:06.207Z,94004.00
2022-09-28T06:00:34.359Z,94001.56
2022-09-28T06:03:08.895Z,94003.38
2022-09-28T06:05:37.269Z,94002.94
2022-09-28T06:08:05.549Z,94001.34
2022-09-28T06:10:33.218Z,93997.78
2022-09-28T06:13:00.831Z,94004.50
2022-09-28T06:15:29.477Z,94008.81
2022-09-28T06:18:00.722Z,94007.03
2022-09-28T06:20:30.346Z,94001.16
2022-09-28T06:22:57.035Z,93992.56
2022-09-28T06:25:24.252Z,93995.59
2022-09-28T06:27:58.191Z,93987.56
2022-09-28T06:30:26.355Z,93997.81
2022-09-28T06:32:55.055Z,93990.94
2022-09-28T06:35:22.187Z,93990.94
2022-09-28T06:37:48.787Z,93997.63
2022-09-28T06:40:15.365Z,94000.09
2022-09-28T06:42:41.862Z,94001.00
2022-09-28T06:45:08.770Z,94000.22
2022-09-28T06:47:35.207Z,94015.50
2022-09-28T06:50:01.687Z,94010.53
2022-09-28T06:52:28.134Z,94008.19
2022-09-28T06:54:54.572Z,94017.19
2022-09-28T06:57:21.062Z,94017.34
2022-09-28T06:59:47.510Z,94025.09
2022-09-28T07:02:14.007Z,94027.00
2022-09-28T07:04:42.069Z,94023.72
2022-09-28T07:07:12.033Z,94016.75
2022-09-28T07:09:43.699Z,94034.78
2022-09-28T07:12:13.073Z,94024.38
2022-09-28T07:14:47.912Z,94034.59
2022-09-28T07:17:15.122Z,94018.25
2022-09-28T07:19:42.087Z,94016.03
2022-09-28T07:22:08.553Z,94021.00
2022-09-28T07:24:34.988Z,94020.25
2022-09-28T07:27:01.439Z,94018.34
2022-09-28T07:29:27.940Z,94034.81
2022-09-28T07:31:54.411Z,94022.88
2022-09-28T07:34:23.378Z,94024.69
2022-09-28T07:36:49.838Z,94013.53
2022-09-28T07:39:16.300Z,94029.25
2022-09-28T07:41:42.753Z,94017.34
2022-09-28T07:44:09.287Z,94015.81
2022-09-28T07:46:36.735Z,94014.00
2022-09-28T07:49:05.772Z,94012.59
2022-09-28T07:51:35.190Z,94000.22
2022-09-28T07:54:01.775Z,94013.22
2022-09-28T07:56:28.235Z,94023.31
2022-09-28T07:58:54.692Z,94023.97
2022-09-28T08:01:21.226Z,94026.97
2022-09-28T08:03:47.687Z,94030.28
2022-09-28T08:06:16.509Z,94026.75
2022-09-28T08:08:43.727Z,94036.88
2022-09-28T08:11:13.475Z,94029.88
2022-09-28T08:13:40.683Z,94028.81
2022-09-28T08:16:07.470Z,94038.63
2022-09-28T08:18:35.215Z,94028.69
2022-09-28T08:21:05.772Z,94035.53
2022-09-28T08:23:32.226Z,94033.41
2022-09-28T08:25:58.694Z,94022.28
2022-09-28T08:28:25.355Z,94023.81
2022-09-28T08:30:52.373Z,94031.72
2022-09-28T08:33:19.794Z,94034.81
2022-09-28T08:35:46.339Z,94043.56
2022-09-28T08:38:13.187Z,94033.88
2022-09-28T08:41:06.491Z,94034.38
2022-09-28T08:43:51.873Z,94057.69
2022-09-28T08:46:25.183Z,94041.69
2022-09-28T08:49:23.755Z,94062.59
2022-09-28T08:52:06.181Z,94060.56
2022-09-28T08:54:47.776Z,94064.88
2022-09-28T08:57:50.807Z,94063.16
2022-09-28T09:00:32.053Z,94061.75
2022-09-28T09:02:59.200Z,94056.72
2022-09-28T09:06:02.364Z,94084.06
2022-09-28T09:09:00.618Z,94055.53
2022-09-28T09:11:45.535Z,94055.34
2022-09-28T09:14:57.474Z,94060.84
2022-09-28T09:18:08.830Z,94053.63
2022-09-28T09:20:50.458Z,94056.38
2022-09-28T09:23:31.720Z,94066.16
2022-09-28T09:26:29.908Z,94062.22
2022-09-28T09:29:06.320Z,94067.75
2022-09-28T09:31:41.731Z,94060.41
2022-09-28T09:34:25.601Z,94064.09
2022-09-28T09:37:21.141Z,94074.22
2022-09-28T09:40:28.097Z,94069.84
2022-09-28T09:43:04.867Z,94062.00
2022-09-28T09:45:42.476Z,94059.84
2022-09-28T09:48:26.912Z,94053.84
2022-09-28T09:51:02.939Z,94042.25
2022-09-28T09:53:37.770Z,94040.09
2022-09-28T09:56:19.154Z,94047.91
2022-09-28T09:58:53.405Z,94043.31
2022-09-28T10:01:30.429Z,94065.06
2022-09-28T10:03:58.881Z,94046.41
2022-09-28T10:06:32.770Z,94062.78
2022-09-28T10:09:09.410Z,94059.78
2022-09-28T10:11:44.663Z,94052.34
2022-09-28T10:14:17.425Z,94046.38
2022-09-28T10:16:46.429Z,94040.16
2022-09-28T10:19:15.008Z,94039.72
2022-09-28T10:21:43.262Z,94043.88
2022-09-28T10:24:29.856Z,94039.16
2022-09-28T10:27:05.389Z,94041.47
2022-09-28T10:29:43.039Z,94036.28
2022-09-28T10:32:22.532Z,94043.56
2022-09-28T10:34:51.038Z,94031.56
2022-09-28T10:37:18.416Z,94037.22
2022-09-28T10:39:53.780Z,94024.22
2022-09-28T10:42:26.465Z,94038.38
2022-09-28T10:45:14.430Z,94044.34
2022-09-28T10:47:44.634Z,94032.16
2022-09-28T10:50:27.267Z,94032.16
2022-09-28T10:52:53.952Z,94030.88
2022-09-28T10:55:26.520Z,94023.47
2022-09-28T10:57:53.821Z,94010.00
2022-09-28T11:00:49.621Z,94021.72
2022-09-28T11:03:27.914Z,94013.03
2022-09-28T11:05:58.480Z,94005.41
2022-09-28T11:08:32.588Z,93996.38
2022-09-28T11:11:05.296Z,93997.69
2022-09-28T11:13:39.740Z,93997.16
2022-09-28T11:16:06.769Z,93995.44
2022-09-28T11:18:33.768Z,94003.13
2022-09-28T11:21:23.760Z,94010.56
2022-09-28T11:24:19.240Z,93991.41
2022-09-28T11:26:50.140Z,93998.63
2022-09-28T11:29:51.324Z,94002.41
2022-09-28T11:32:17.980Z,94009.81
2022-09-28T11:34:59.244Z,94014.28
2022-09-28T11:37:40.034Z,94014.19
2022-09-28T11:40:44.532Z,93990.00
2022-09-28T11:43:32.511Z,93990.59
2022-09-28T11:46:16.022Z,93986.78
2022-09-28T11:48:51.842Z,93993.34
2022-09-28T11:51:25.880Z,93981.78
2022-09-28T11:54:03.400Z,93971.28
2022-09-28T11:56:43.920Z,93980.25
2022-09-28T11:59:34.477Z,93967.56
2022-09-28T12:02:16.497Z,93957.47
2022-09-28T12:04:48.722Z,93954.69
2022-09-28T12:07:34.257Z,93962.38
2022-09-28T12:10:16.713Z,93975.38
2022-09-28T12:12:59.107Z,93957.06
2022-09-28T12:16:06.902Z,93970.00
2022-09-28T12:18:32.730Z,93963.00
2022-09-28T12:21:24.045Z,93971.94
2022-09-28T12:23:56.825Z,93962.22
2022-09-28T12:26:25.950Z,93966.69
2022-09-28T12:29:00.912Z,93958.22
2022-09-28T12:31:45.558Z,93957.75
2022-09-28T12:34:12.058Z,93961.63
2022-09-28T12:37:10.759Z,93970.81
2022-09-28T12:40:05.590Z,93969.75
2022-09-28T12:43:08.741Z,93957.09
2022-09-28T12:46:13.381Z,93963.34
2022-09-28T12:52:08.617Z,93950.00
2022-09-28T12:54:37.722Z,93952.25
2022-09-28T12:57:22.784Z,93948.69
2022-09-28T13:00:04.756Z,93945.75
2022-09-28T13:02:56.039Z,93935.16
2022-09-28T13:06:08.689Z,93934.25
2022-09-28T13:08:54.059Z,93934.81
2022-09-28T13:11:48.399Z,93931.78
2022-09-28T13:14:57.876Z,93925.31
2022-09-28T13:17:33.422Z,93934.28
2022-09-28T13:20:17.613Z,93929.47
2022-09-28T13:23:16.144Z,93925.44
2022-09-28T13:26:04.457Z,93929.66
2022-09-28T13:28:34.026Z,93923.34
2022-09-28T13:31:03.719Z,93941.88
2022-09-28T13:33:38.592Z,93929.47
2022-09-28T13:36:48.029Z,93956.63
2022-09-28T13:39:38.418Z,93940.44
2022-09-28T13:42:09.336Z,93948.56
2022-09-28T13:44:52.822Z,93944.88
2022-09-28T13:47:31.547Z,93943.94
2022-09-28T13:50:22.024Z,93944.88
2022-09-28T13:53:06.754Z,93937.78
2022-09-28T13:55:55.968Z,93963.66
2022-09-28T13:58:33.456Z,93961.81
2022-09-28T14:01:14.377Z,93965.78
2022-09-28T14:04:12.179Z,93953.84
2022-09-28T14:06:55.787Z,93953.97
2022-09-28T14:09:26.392Z,93947.44
2022-09-28T14:11:59.787Z,93945.31
2022-09-28T14:14:50.620Z,93940.16
2022-09-28T14:17:23.024Z,93947.16
2022-09-28T14:19:56.152Z,93948.16
2022-09-28T14:22:56.954Z,93947.91
2022-09-28T14:25:30.064Z,93944.88
2022-09-28T14:28:17.819Z,93944.94
2022-09-28T14:30:54.065Z,93955.47
2022-09-28T14:33:20.661Z,93949.69
2022-09-28T14:35:56.507Z,93965.72
2022-09-28T14:38:29.932Z,93962.75
2022-09-28T14:41:01.076Z,93965.03
2022-09-28T14:43:47.576Z,93968.00
2022-09-28T14:46:14.006Z,93965.13
2022-09-28T14:48:52.650Z,93962.38
2022-09-28T14:51:25.084Z,93961.19
2022-09-28T14:53:53.574Z,93954.59
2022-09-28T14:56:20.991Z,93962.22
2022-09-28T14:58:55.688Z,93966.47
2022-09-28T15:01:24.745Z,93957.25
2022-09-28T15:03:55.942Z,93957.75
2022-09-28T15:06:24.064Z,93961.00
2022-09-28T15:08:50.653Z,93959.59
2022-09-28T15:11:22.488Z,93974.38
2022-09-28T15:13:51.576Z,93966.00
2022-09-28T15:16:22.478Z,93967.84
2022-09-28T15:18:48.934Z,93970.22
2022-09-28T15:21:15.519Z,93992.78
2022-09-28T15:23:44.245Z,93989.31
2022-09-28T15:26:32.559Z,94002.88
2022-09-28T15:29:00.004Z,93988.50
2022-09-28T15:31:34.629Z,93994.25
2022-09-28T15:34:01.104Z,93996.63
2022-09-28T15:36:37.238Z,93986.25
2022-09-28T15:39:12.250Z,93986.81
2022-09-28T15:41:39.557Z,93986.06
2022-09-28T15:44:30.546Z,93986.00
2022-09-28T15:47:08.735Z,93987.44
2022-09-28T15:49:41.327Z,93984.94
2022-09-28T15:52:24.678Z,93998.75
2022-09-28T15:54:52.191Z,93989.22
2022-09-28T15:57:38.348Z,94000.84
2022-09-28T16:00:21.607Z,93993.91
2022-09-28T16:03:19.004Z,94002.44
2022-09-28T16:05:52.204Z,93991.06
2022-09-28T16:08:30.739Z,93994.72
2022-09-28T16:11:12.870Z,94007.00
2022-09-28T16:13:51.391Z,94003.66
2022-09-28T16:16:18.354Z,94002.53
2022-09-28T16:18:50.999Z,94005.91
2022-09-28T16:21:32.871Z,94005.09
2022-09-28T16:23:59.514Z,94015.06
2022-09-28T16:26:38.196Z,94018.91
2022-09-28T16:29:24.788Z,94013.84
2022-09-28T16:31:51.876Z,94014.69
2022-09-28T16:34:23.547Z,94017.28
2022-09-28T16:36:50.395Z,94033.16
2022-09-28T16:39:18.571Z,94046.63
2022-09-28T16:42:00.327Z,94044.13
2022-09-28T16:44:27.768Z,94058.63
2022-09-28T16:46:58.047Z,94065.13
2022-09-28T16:49:25.400Z,94074.28
2022-09-28T16:51:52.297Z,94078.34
2022-09-28T16:54:22.012Z,94069.13
2022-09-28T16:56:48.461Z,94085.75
2022-09-28T16:59:14.976Z,94082.84
2022-09-28T17:01:41.535Z,94083.78
2022-09-28T17:04:08.037Z,94083.06
2022-09-28T17:06:34.540Z,94078.34
2022-09-28T17:09:00.983Z,94098.59
2022-09-28T17:11:27.417Z,94101.88
2022-09-28T17:13:53.841Z,94099.50
2022-09-28T17:16:43.597Z,94105.94
2022-09-28T17:19:20.074Z,94113.22
2022-09-28T17:21:47.176Z,94113.31
2022-09-28T17:24:13.640Z,94114.59
2022-09-28T17:26:41.027Z,94122.19
2022-09-28T17:29:07.557Z,94130.16
2022-09-28T17:31:34.370Z,94124.47
2022-09-28T17:34:00.818Z,94131.44
2022-09-28T17:36:27.290Z,94122.81
2022-09-28T17:38:53.720Z,94118.84
2022-09-28T17:41:21.058Z,94129.25
2022-09-28T17:43:49.076Z,94120.19
2022-09-28T17:46:25.254Z,94118.19
2022-09-28T17:48:52.049Z,94117.00
2022-09-28T17:51:18.499Z,94106.78
2022-09-28T17:53:44.975Z,94112.31
2022-09-28T17:56:11.431Z,94110.63
2022-09-28T17:58:37.874Z,94120.91
2022-09-28T18:01:04.406Z,94125.31
2022-09-28T18:03:31.046Z,94125.69
2022-09-28T18:06:11.615Z,94130.34
2022-09-28T18:08:38.100Z,94137.78
2022-09-28T18:11:05.100Z,94134.56
2022-09-28T18:13:31.550Z,94140.13
2022-09-28T18:15:58.192Z,94145.69
2022-09-28T18:18:24.814Z,94140.09
2022-09-28T18:20:51.934Z,94137.13
2022-09-28T18:23:19.456Z,94133.31
2022-09-28T18:25:46.790Z,94132.94
2022-09-28T18:28:14.097Z,94137.78
2022-09-28T18:30:43.258Z,94140.88
2022-09-28T18:33:11.723Z,94134.81
2022-09-28T18:35:38.778Z,94131.72
2022-09-28T18:38:06.643Z,94145.31
2022-09-28T18:40:36.202Z,94146.50
2022-09-28T18:43:03.142Z,94141.28
2022-09-28T18:45:29.812Z,94142.91
2022-09-28T18:47:57.355Z,94144.19
2022-09-28T18:50:23.896Z,94137.09
2022-09-28T18:52:50.357Z,94142.97
2022-09-28T18:55:16.839Z,94141.41
2022-09-28T18:57:43.308Z,94138.56
2022-09-28T19:00:11.582Z,94144.19
2022-09-28T19:02:38.283Z,94135.97
2022-09-28T19:05:06.092Z,94150.81
2022-09-28T19:07:33.648Z,94146.66
2022-09-28T19:10:00.156Z,94143.59
2022-09-28T19:12:26.700Z,94142.03
2022-09-28T19:14:53.160Z,94147.41
2022-09-28T19:17:19.633Z,94143.91
2022-09-28T19:19:46.095Z,94140.31
2022-09-28T19:22:15.821Z,94141.75
2022-09-28T19:24:42.274Z,94136.59
2022-09-28T19:27:08.710Z,94150.22
2022-09-28T19:29:35.146Z,94148.16
2022-09-28T19:32:04.534Z,94151.53
2022-09-28T19:34:31.092Z,94143.28
2022-09-28T19:36:57.521Z,94151.47
2022-09-28T19:39:24.131Z,94145.00
2022-09-28T19:41:50.752Z,94143.69
2022-09-28T19:44:20.221Z,94141.00
2022-09-28T19:46:46.813Z,94144.09
2022-09-28T19:49:15.620Z,94139.91
2022-09-28T19:52:01.581Z,94140.50
2022-09-28T19:54:32.017Z,94139.09
2022-09-28T19:57:00.806Z,94137.91
2022-09-28T19:59:30.201Z,94137.63
2022-09-28T20:01:56.687Z,94139.56
2022-09-28T20:04:23.142Z,94136.06
2022-09-28T20:06:49.618Z,94134.00
2022-09-28T20:09:16.143Z,94125.50
2022-09-28T20:11:42.578Z,94140.03
2022-09-28T20:14:09.837Z,94135.66
2022-09-28T20:16:36.619Z,94140.41
2022-09-28T20:19:04.021Z,94144.66
2022-09-28T20:21:30.851Z,94142.50
2022-09-28T20:23:57.402Z,94147.94
2022-09-28T20:26:25.952Z,94142.81
2022-09-28T20:28:53.456Z,94149.44
2022-09-28T20:31:24.722Z,94143.63
2022-09-28T20:33:52.224Z,94153.63
2022-09-28T20:36:23.911Z,94145.91
2022-09-28T20:38:54.818Z,94136.91
2022-09-28T20:41:22.938Z,94140.59
2022-09-28T20:43:55.443Z,94135.28
2022-09-28T20:46:23.180Z,94125.25
2022-09-28T20:48:50.392Z,94134.09
2022-09-28T20:51:19.492Z,94131.31
2022-09-28T20:53:54.868Z,94123.34
2022-09-28T20:56:33.231Z,94135.81
2022-09-28T20:58:59.929Z,94136.78
2022-09-28T21:01:28.152Z,94135.06
2022-09-28T21:03:57.340Z,94137.19
2022-09-28T21:06:27.076Z,94137.75
2022-09-28T21:08:53.698Z,94145.50
2022-09-28T21:11:25.137Z,94143.03
2022-09-28T21:13:53.756Z,94142.66
2022-09-28T21:16:20.419Z,94142.06
2022-09-28T21:18:47.791Z,94129.56
2022-09-28T21:21:16.911Z,94130.78
2022-09-28T21:23:43.783Z,94125.38
2022-09-28T21:26:13.308Z,94118.06
2022-09-28T21:28:40.337Z,94111.28
2022-09-28T21:31:09.978Z,94115.59
2022-09-28T21:33:36.556Z,94116.16
2022-09-28T21:36:05.679Z,94119.50
2022-09-28T21:38:32.705Z,94118.38
2022-09-28T21:41:00.145Z,94115.94
2022-09-28T21:43:28.706Z,94120.09
2022-09-28T21:45:56.782Z,94106.19
2022-09-28T21:48:25.614Z,94116.41
2022-09-28T21:51:07.187Z,94108.41
2022-09-28T21:53:36.717Z,94105.75
2022-09-28T21:56:06.440Z,94099.25
2022-09-28T21:58:34.968Z,94101.34
2022-09-28T22:01:08.761Z,94093.88
2022-09-28T22:03:36.783Z,94090.69
2022-09-28T22:06:04.802Z,94092.59
2022-09-28T22:08:31.983Z,94088.50
2022-09-28T22:11:09.264Z,94094.22
2022-09-28T22:13:40.358Z,94096.28
2022-09-28T22:16:08.156Z,94088.34
2022-09-28T22:18:34.907Z,94083.66
2022-09-28T22:21:05.914Z,94092.16
2022-09-28T22:23:33.820Z,94091.75
2022-09-28T22:26:14.755Z,94092.50
2022-09-28T22:28:48.080Z,94096.88
2022-09-28T22:31:15.788Z,94089.38
2022-09-28T22:33:42.479Z,94094.50
2022-09-28T22:36:08.971Z,94090.84
2022-09-28T22:38:35.680Z,94095.09
2022-09-28T22:41:02.215Z,94085.25
2022-09-28T22:43:29.130Z,94091.16
2022-09-28T22:46:08.320Z,94091.16
2022-09-28T22:48:35.317Z,94076.13
2022-09-28T22:51:03.173Z,94077.56
2022-09-28T22:53:30.015Z,94071.78
2022-09-28T22:55:58.503Z,94071.47
2022-09-28T22:58:25.006Z,94070.91
2022-09-28T23:00:51.492Z,94071.03
2022-09-28T23:03:18.061Z,94061.97
2022-09-28T23:05:57.164Z,94070.66
2022-09-28T23:08:24.219Z,94064.03
2022-09-28T23:10:51.606Z,94071.94
2022-09-28T23:13:18.481Z,94069.00
2022-09-28T23:16:12.512Z,94075.13
2022-09-28T23:18:40.158Z,94064.72
2022-09-28T23:21:10.815Z,94072.78
2022-09-28T23:23:37.485Z,94078.25
2022-09-28T23:26:19.183Z,94076.47
2022-09-28T23:28:46.492Z,94064.28
2022-09-28T23:31:19.311Z,94060.47
2022-09-28T23:33:46.119Z,94060.56
2022-09-28T23:36:12.588Z,94068.72
2022-09-28T23:38:39.759Z,94065.47
2022-09-28T23:41:06.715Z,94057.00
2022-09-28T23:43:34.143Z,94058.56
2022-09-28T23:46:00.615Z,94056.50
2022-09-28T23:48:27.214Z,94060.72
2022-09-28T23:50:53.654Z,94058.34
2022-09-28T23:53:20.178Z,94052.56
2022-09-28T23:55:46.649Z,94051.38
2022-09-28T23:58:13.094Z,94048.66
